• Join FlightAware (Why Join?)
  • Login
  • US Flag 
04:12AM EDT


 

Airport Tracker/Info


-or-


 

Live Flight TrackerFlight Track Log ✈ UAL4108 ✈ 08-Apr-2013 ✈ KRDU - KEWR

Flight Track Log - Related Links

Times and Time Zones

All times are in EDT time to prevent confusion due to time zone crossing. See the UAL4108 flight status page for this flight to view local times or setup timezone preferences in your user account.

Time Position Orientation Groundspeed Altitude Reporting Facility
EDT Latitude Longitude Course Direction KTS MPH feet Rate Location/Type
06:04AM 35.8664 -78.8139 11° North 153 176 1,500  Level Washington Center
06:05AM 35.8525 -78.8644 251° West 196 226 3,800 2,160 Climbing Washington Center
06:06AM 35.9158 -78.8442 15° North 244 281 6,400 1,800 Climbing Washington Center
06:07AM 36.2045 -78.6528 19° North  Level FlightAware Approximate
06:07AM 35.9603 -78.8203 24° Northeast 259 298 7,300  Level Washington Center
06:08AM 36.2896 -78.6201 15° North  Level FlightAware Approximate
06:09AM 36.3761 -78.5935 11° North  Level FlightAware Approximate
06:09AM 36.1103 -78.7442 22° Northeast 277 319 10,900  Level Washington Center
06:10AM 36.2036 -78.6939 23° Northeast 320 368 12,200 1,200 Climbing Washington Center
06:11AM 36.2861 -78.6506 23° Northeast 340 391 13,300 1,140 Climbing Washington Center
06:12AM 36.3936 -78.6006 21° North 363 418 14,500 1,020 Climbing Washington Center
06:13AM 36.4864 -78.5681 16° North 369 425 15,400 960 Climbing Washington Center
06:14AM 36.5894 -78.5331 15° North 379 436 16,500 1,080 Climbing Washington Center
06:15AM 36.6947 -78.4906 18° North 385 443 17,600 960 Climbing Washington Center
06:16AM 36.7942 -78.4372 23° Northeast 385 443 18,500 960 Climbing Washington Center
06:17AM 36.8897 -78.3575 34° Northeast 390 449 19,600 1,140 Climbing Washington Center
06:18AM 36.9961 -78.2706 33° Northeast 411 473 20,800 1,140 Climbing Washington Center
06:19AM 37.0917 -78.1906 34° Northeast 411 473 21,900 1,020 Climbing Washington Center
06:20AM 37.1789 -78.1203 33° Northeast 411 473 22,900 1,020 Climbing Washington Center
06:21AM 37.2744 -78.0425 33° Northeast 411 473 24,000 1,080 Climbing Washington Center
06:22AM 37.3697 -77.9619 34° Northeast 411 473 25,100 1,080 Climbing Washington Center
06:23AM 37.4653 -77.8814 34° Northeast 411 473 26,200 1,080 Climbing Washington Center
06:24AM 37.5606 -77.8003 34° Northeast 411 473 27,300 1,080 Climbing Washington Center
06:25AM 37.6539 -77.7164 35° Northeast 406 467 28,400 840 Climbing Washington Center
06:26AM 37.7450 -77.6325 36° Northeast 406 467 29,000 300 Climbing Washington Center
06:27AM 37.8425 -77.5431 36° Northeast 411 473 29,000  Level Washington Center
06:28AM 37.9461 -77.4508 35° Northeast 433 498 29,000  Level Washington Center
06:29AM 38.0603 -77.3428 37° Northeast 451 519 29,000  Level Washington Center
06:30AM 38.1639 -77.2450 37° Northeast 456 525 29,000  Level Washington Center
06:31AM 38.2611 -77.1597 35° Northeast 461 531 29,000  Level Washington Center
06:32AM 38.3792 -77.0511 36° Northeast 461 531 29,000  Level Washington Center
06:33AM 38.4761 -76.9628 35° Northeast 461 531 29,000  Level Washington Center
06:34AM 38.5814 -76.8639 36° Northeast 461 531 29,000  Level Washington Center
06:35AM 38.6867 -76.7644 36° Northeast 466 536 29,000  Level Washington Center
06:36AM 38.7900 -76.6517 40° Northeast 466 536 29,000  Level Washington Center
06:37AM 38.8889 -76.5383 42° Northeast 477 549 29,000 -420 Level Washington Center
06:38AM 38.9875 -76.4247 42° Northeast 477 549 28,200 -1,020 Descending Washington Center
06:39AM 39.0864 -76.3108 42° Northeast 472 543 27,000 -600 Descending Washington Center
06:40AM 39.1869 -76.1942 42° Northeast 472 543 27,000  Level Washington Center
06:41AM 39.2856 -76.0769 43° Northeast 472 543 27,000  Level Washington Center
06:42AM 39.3858 -75.9594 42° Northeast 477 549 27,000 -120 Level Washington Center
06:43AM 39.4861 -75.8389 43° Northeast 477 549 26,800 -900 Descending Washington Center
06:44AM 39.5844 -75.7233 42° Northeast 477 549 25,200 -1,980 Descending Washington Center
06:45AM 39.6781 -75.6103 43° Northeast 472 543 22,900 -2,400 Descending Washington Center
06:46AM 39.7697 -75.5025 42° Northeast 466 536 20,500 -2,400 Descending Washington Center
06:47AM 39.8592 -75.3914 44° Northeast 445 512 18,100 -2,400 Descending Washington Center
06:48AM 39.9444 -75.2911 42° Northeast 429 494 15,800 -2,400 Descending Washington Center
06:49AM 40.0253 -75.1878 44° Northeast 414 476 13,300 -2,400 Descending Washington Center
06:50AM 40.1042 -75.0950 42° Northeast 393 452 11,100 -1,320 Descending Washington Center
06:51AM 40.2000 -74.9833 42° Northeast 346 398 10,600 -900 Descending New York TRACON
06:52AM 40.2500 -74.9000 52° Northeast 297 342 9,300 -1,680 Descending New York TRACON
06:53AM 40.3167 -74.8333 37° Northeast 291 335 7,300 -1,740 Descending New York TRACON
06:54AM 40.3500 -74.7667 57° Northeast 284 327 6,100 -720 Descending New York TRACON
06:55AM 40.4167 -74.6833 44° Northeast 285 328 6,000 -60 Descending New York TRACON
06:56AM 40.4667 -74.6500 27° Northeast 276 318 6,000  Level New York TRACON
06:57AM 40.5500 -74.6333 North 261 300 6,000  Level New York TRACON
06:58AM 40.6167 -74.6167 11° North 272 313 6,000  Level New York TRACON
06:59AM 40.7000 -74.5833 17° North 285 328 6,000  Level New York TRACON
07:00AM 40.7500 -74.5333 37° Northeast 287 330 6,000 -360 Level New York TRACON
07:01AM 40.8167 -74.4833 30° Northeast 284 327 5,400 -540 Descending New York TRACON
07:02AM 40.8667 -74.4333 37° Northeast 282 325 5,000 -240 Descending New York TRACON
07:03AM 40.9333 -74.3667 37° Northeast 286 329 5,000 -120 Level New York TRACON
07:04AM 40.9500 -74.2667 78° East 295 339 4,800 -540 Descending New York TRACON
07:05AM 40.9333 -74.1667 102° East 288 331 4,000 -900 Descending New York TRACON
07:06AM 40.8667 -74.0833 137° Southeast 277 319 3,100 -900 Descending New York TRACON